• Join FlightAware (Why Join?)
  • Login
  • US Flag 
06:10AM EDT


 

Airport Tracker/Info


-or-


 

Live Flight TrackerFlight Track Log ✈ CTL18 ✈ 11-Jul-2013 ✈ KMBS - KYIP

Flight Track Log - Related Links

Times and Time Zones

All times are in EDT time to prevent confusion due to time zone crossing. See the CTL18 flight status page for this flight to view local times or setup timezone preferences in your user account.

Time Position Orientation Groundspeed Altitude Reporting Facility
EDT Latitude Longitude Course Direction KTS MPH feet Rate Location/Type
08:22PM 43.3904 -84.0180 160° South  Level Estimated
08:23PM 43.3637 -83.9994 153° Southeast  Level FlightAware Approximate
08:24PM 43.3371 -83.9809 153° Southeast  Level FlightAware Approximate
08:25PM 43.3085 -83.9689 160° South  Level Estimated
08:26PM 43.2809 -83.9532 157° South  Level FlightAware Approximate
08:27PM 43.2533 -83.9375 157° South  Level FlightAware Approximate
08:28PM 43.2246 -83.9258 163° South  Level Estimated
08:28PM 43.0128 -83.8231 160° South 194 223 5,000  Level Cleveland Center
08:29PM 43.1964 -83.9124 161° South  Level FlightAware Approximate
08:29PM 42.9367 -83.7878 161° South 192 221 5,000  Level Cleveland Center
08:30PM 43.1682 -83.8990 161° South  Level FlightAware Approximate
08:30PM 42.8875 -83.7628 160° South 191 220 5,000  Level Cleveland Center
08:31PM 43.1399 -83.8856 161° South  Level FlightAware Approximate
08:31PM 42.8400 -83.7375 159° South 190 219 5,000  Level Cleveland Center
08:32PM 43.1113 -83.8741 160° South  Level Estimated
08:32PM 42.7800 -83.7233 170° South 194 223 5,000  Level Cleveland Center
08:33PM 43.0832 -83.8599 160° South  Level FlightAware Approximate
08:33PM 42.7306 -83.7039 164° South 189 217 5,000  Level Cleveland Center
08:34PM 42.6767 -83.6900 169° South 192 221 5,000  Level Cleveland Center
08:35PM 42.6272 -83.6733 166° South 192 221 5,000 -240 Level Cleveland Center
08:36PM 42.5714 -83.6536 165° South 191 220 4,600 -480 Descending Cleveland Center
08:37PM 42.5156 -83.6342 166° South 206 237 4,100 -540 Descending Cleveland Center
08:38PM 42.4619 -83.6172 167° South 194 223 3,600 -540 Descending Cleveland Center
08:39PM 42.4122 -83.6008 166° South 189 217 3,100 -540 Descending Cleveland Center
08:40PM 42.3564 -83.5897 172° South 191 220 2,600 -600 Descending Cleveland Center
08:41PM 42.3044 -83.5761 169° South 182 209 2,000 -540 Descending Cleveland Center
08:42PM 42.2611 -83.5656 170° South 171 197 1,600 -420 Descending Cleveland Center
08:44PM 42.2395 -83.5312 160° South  Level Estimated
08:51PM 42.2393 -83.5310 160° South  Level Estimated
08:52PM 42.2393 -83.5310 160° South  Level Estimated
08:53PM 42.2393 -83.5310 160° South  Level Estimated